sensor_id;sensor_type;location;lat;lon;timestamp;pressure;altitude;pressure_sealevel;temperature;humidity
1926;BME280;964;42.606;23.588;2023-03-15T00:00:18;93543.34;;;22.76;17.09
1926;BME280;964;42.606;23.588;2023-03-15T00:02:45;93543.63;;;22.87;17.61
1926;BME280;964;42.606;23.588;2023-03-15T00:05:12;93542.50;;;22.12;18.10
1926;BME280;964;42.606;23.588;2023-03-15T00:07:39;93540.00;;;22.45;17.87
1926;BME280;964;42.606;23.588;2023-03-15T00:10:06;93543.00;;;23.11;17.70
1926;BME280;964;42.606;23.588;2023-03-15T00:12:33;93535.34;;;23.00;17.37
1926;BME280;964;42.606;23.588;2023-03-15T00:15:00;93522.97;;;23.35;16.75
1926;BME280;964;42.606;23.588;2023-03-15T00:17:29;93545.41;;;21.87;18.23
1926;BME280;964;42.606;23.588;2023-03-15T00:19:59;93540.03;;;22.81;17.01
1926;BME280;964;42.606;23.588;2023-03-15T00:22:26;93535.97;;;22.86;17.41
1926;BME280;964;42.606;23.588;2023-03-15T00:24:52;93530.44;;;23.91;17.05
1926;BME280;964;42.606;23.588;2023-03-15T00:27:19;93528.00;;;24.88;16.41
1926;BME280;964;42.606;23.588;2023-03-15T00:29:46;93525.66;;;24.43;16.95
1926;BME280;964;42.606;23.588;2023-03-15T00:32:12;93523.00;;;25.25;16.82
1926;BME280;964;42.606;23.588;2023-03-15T00:34:40;93528.34;;;24.19;17.12
1926;BME280;964;42.606;23.588;2023-03-15T00:37:13;93519.81;;;25.12;16.80
1926;BME280;964;42.606;23.588;2023-03-15T00:39:41;93516.63;;;24.84;17.09
1926;BME280;964;42.606;23.588;2023-03-15T00:42:10;93517.06;;;23.64;18.22
1926;BME280;964;42.606;23.588;2023-03-15T00:44:36;93506.16;;;25.07;17.13
1926;BME280;964;42.606;23.588;2023-03-15T00:47:03;93516.63;;;25.14;16.95
1926;BME280;964;42.606;23.588;2023-03-15T00:49:31;93508.22;;;25.70;16.44
1926;BME280;964;42.606;23.588;2023-03-15T00:51:59;93509.53;;;25.60;16.74
1926;BME280;964;42.606;23.588;2023-03-15T00:54:25;93500.72;;;25.65;16.78
1926;BME280;964;42.606;23.588;2023-03-15T00:56:52;93506.72;;;25.11;17.27
1926;BME280;964;42.606;23.588;2023-03-15T00:59:19;93503.44;;;25.07;17.29
1926;BME280;964;42.606;23.588;2023-03-15T01:01:46;93506.91;;;24.93;17.60
1926;BME280;964;42.606;23.588;2023-03-15T01:04:13;93508.41;;;24.94;17.85
1926;BME280;964;42.606;23.588;2023-03-15T01:06:40;93511.03;;;23.93;18.85
1926;BME280;964;42.606;23.588;2023-03-15T01:09:08;93512.28;;;24.16;18.40
1926;BME280;964;42.606;23.588;2023-03-15T01:11:35;93499.84;;;24.33;18.24
1926;BME280;964;42.606;23.588;2023-03-15T01:14:05;93498.91;;;24.74;17.69
1926;BME280;964;42.606;23.588;2023-03-15T01:16:33;93498.31;;;25.09;17.76
1926;BME280;964;42.606;23.588;2023-03-15T01:19:00;93498.13;;;25.27;17.46
1926;BME280;964;42.606;23.588;2023-03-15T01:21:27;93489.81;;;25.16;17.69
1926;BME280;964;42.606;23.588;2023-03-15T01:23:54;93485.03;;;25.40;17.22
1926;BME280;964;42.606;23.588;2023-03-15T01:26:22;93484.09;;;25.14;17.78
1926;BME280;964;42.606;23.588;2023-03-15T01:28:49;93486.53;;;24.97;17.75
1926;BME280;964;42.606;23.588;2023-03-15T01:31:18;93484.75;;;24.56;18.00
1926;BME280;964;42.606;23.588;2023-03-15T01:33:45;93489.94;;;22.80;19.34
1926;BME280;964;42.606;23.588;2023-03-15T01:36:12;93484.56;;;23.22;19.20
1926;BME280;964;42.606;23.588;2023-03-15T01:38:39;93476.16;;;23.62;18.96
1926;BME280;964;42.606;23.588;2023-03-15T01:41:07;93458.16;;;24.54;18.17
1926;BME280;964;42.606;23.588;2023-03-15T01:43:35;93478.28;;;23.16;18.89
1926;BME280;964;42.606;23.588;2023-03-15T01:46:05;93475.25;;;23.65;19.02
1926;BME280;964;42.606;23.588;2023-03-15T01:48:36;93472.19;;;23.49;18.92
1926;BME280;964;42.606;23.588;2023-03-15T01:51:08;93464.97;;;24.50;18.29
1926;BME280;964;42.606;23.588;2023-03-15T01:53:38;93465.59;;;24.98;18.31
1926;BME280;964;42.606;23.588;2023-03-15T01:56:08;93460.16;;;25.42;17.85
1926;BME280;964;42.606;23.588;2023-03-15T01:58:37;93457.47;;;25.76;17.76
1926;BME280;964;42.606;23.588;2023-03-15T02:01:07;93454.28;;;25.78;17.91
1926;BME280;964;42.606;23.588;2023-03-15T02:03:37;93457.31;;;25.65;17.63
1926;BME280;964;42.606;23.588;2023-03-15T02:06:13;93455.63;;;24.51;18.51
1926;BME280;964;42.606;23.588;2023-03-15T02:08:45;93445.22;;;25.31;17.88
1926;BME280;964;42.606;23.588;2023-03-15T02:11:12;93441.97;;;25.62;18.05
1926;BME280;964;42.606;23.588;2023-03-15T02:13:44;93453.09;;;24.47;18.79
1926;BME280;964;42.606;23.588;2023-03-15T02:16:10;93446.97;;;24.23;18.69
1926;BME280;964;42.606;23.588;2023-03-15T02:18:37;93427.78;;;24.50;18.58
1926;BME280;964;42.606;23.588;2023-03-15T02:21:13;93431.16;;;24.74;18.33
1926;BME280;964;42.606;23.588;2023-03-15T02:23:47;93439.16;;;23.35;19.93
1926;BME280;964;42.606;23.588;2023-03-15T02:26:20;93428.53;;;23.65;19.34
1926;BME280;964;42.606;23.588;2023-03-15T02:28:51;93427.63;;;24.68;18.64
1926;BME280;964;42.606;23.588;2023-03-15T02:31:19;93431.13;;;24.45;19.04
1926;BME280;964;42.606;23.588;2023-03-15T02:33:49;93422.75;;;25.31;18.22
1926;BME280;964;42.606;23.588;2023-03-15T02:36:18;93417.00;;;25.09;19.33
1926;BME280;964;42.606;23.588;2023-03-15T02:38:47;93428.69;;;22.86;20.10
1926;BME280;964;42.606;23.588;2023-03-15T02:41:16;93421.03;;;23.83;19.37
1926;BME280;964;42.606;23.588;2023-03-15T02:43:44;93416.38;;;24.31;19.45
1926;BME280;964;42.606;23.588;2023-03-15T02:46:13;93414.75;;;23.54;20.11
1926;BME280;964;42.606;23.588;2023-03-15T02:48:41;93402.59;;;24.73;19.31
1926;BME280;964;42.606;23.588;2023-03-15T02:51:16;93404.72;;;24.40;19.48
1926;BME280;964;42.606;23.588;2023-03-15T02:53:45;93411.16;;;24.57;19.52
1926;BME280;964;42.606;23.588;2023-03-15T02:56:11;93408.19;;;24.55;18.86
1926;BME280;964;42.606;23.588;2023-03-15T02:58:39;93395.66;;;24.43;19.57
1926;BME280;964;42.606;23.588;2023-03-15T03:01:06;93408.59;;;23.20;20.11
1926;BME280;964;42.606;23.588;2023-03-15T03:03:34;93403.66;;;23.75;19.89
1926;BME280;964;42.606;23.588;2023-03-15T03:06:01;93403.44;;;23.64;19.57
1926;BME280;964;42.606;23.588;2023-03-15T03:08:28;93390.91;;;24.53;19.09
1926;BME280;964;42.606;23.588;2023-03-15T03:10:54;93394.72;;;24.46;19.25
1926;BME280;964;42.606;23.588;2023-03-15T03:13:21;93394.22;;;24.18;19.47
1926;BME280;964;42.606;23.588;2023-03-15T03:15:48;93389.53;;;23.57;20.06
1926;BME280;964;42.606;23.588;2023-03-15T03:18:23;93398.72;;;22.30;21.10
1926;BME280;964;42.606;23.588;2023-03-15T03:20:54;93398.13;;;22.35;21.30
1926;BME280;964;42.606;23.588;2023-03-15T03:23:21;93384.13;;;23.24;20.08
1926;BME280;964;42.606;23.588;2023-03-15T03:25:50;93375.91;;;22.58;20.96
1926;BME280;964;42.606;23.588;2023-03-15T03:28:16;93381.66;;;22.33;20.72
1926;BME280;964;42.606;23.588;2023-03-15T03:30:43;93375.38;;;22.18;21.30
1926;BME280;964;42.606;23.588;2023-03-15T03:33:10;93371.19;;;22.08;21.42
1926;BME280;964;42.606;23.588;2023-03-15T03:35:36;93381.22;;;22.25;21.17
1926;BME280;964;42.606;23.588;2023-03-15T03:38:05;93381.34;;;21.85;21.41
1926;BME280;964;42.606;23.588;2023-03-15T03:40:31;93376.28;;;21.96;21.14
1926;BME280;964;42.606;23.588;2023-03-15T03:42:58;93377.38;;;21.41;21.50
1926;BME280;964;42.606;23.588;2023-03-15T03:45:26;93374.25;;;21.02;22.16
1926;BME280;964;42.606;23.588;2023-03-15T03:47:52;93373.06;;;21.03;22.21
1926;BME280;964;42.606;23.588;2023-03-15T03:50:19;93372.63;;;20.74;22.60
1926;BME280;964;42.606;23.588;2023-03-15T03:52:46;93380.31;;;20.54;22.71
1926;BME280;964;42.606;23.588;2023-03-15T03:55:14;93372.31;;;21.61;21.72
1926;BME280;964;42.606;23.588;2023-03-15T03:57:41;93374.44;;;20.46;22.77
1926;BME280;964;42.606;23.588;2023-03-15T04:00:11;93366.22;;;21.12;22.20
1926;BME280;964;42.606;23.588;2023-03-15T04:02:39;93370.22;;;21.56;22.04
1926;BME280;964;42.606;23.588;2023-03-15T04:05:07;93366.94;;;21.52;21.70
1926;BME280;964;42.606;23.588;2023-03-15T04:07:34;93347.47;;;22.21;21.65
1926;BME280;964;42.606;23.588;2023-03-15T04:10:00;93354.69;;;21.96;21.26
1926;BME280;964;42.606;23.588;2023-03-15T04:12:28;93357.00;;;21.40;21.79
1926;BME280;964;42.606;23.588;2023-03-15T04:14:55;93343.28;;;21.74;21.43
1926;BME280;964;42.606;23.588;2023-03-15T04:17:22;93347.44;;;21.48;21.89
1926;BME280;964;42.606;23.588;2023-03-15T04:19:48;93351.81;;;21.06;22.29
1926;BME280;964;42.606;23.588;2023-03-15T04:22:15;93346.97;;;20.91;22.67
1926;BME280;964;42.606;23.588;2023-03-15T04:24:42;93341.31;;;21.47;21.83
1926;BME280;964;42.606;23.588;2023-03-15T04:27:10;93339.50;;;20.95;22.32
1926;BME280;964;42.606;23.588;2023-03-15T04:29:40;93339.34;;;21.57;22.07
1926;BME280;964;42.606;23.588;2023-03-15T04:32:08;93352.72;;;20.41;22.32
1926;BME280;964;42.606;23.588;2023-03-15T04:34:35;93344.50;;;20.23;23.13
1926;BME280;964;42.606;23.588;2023-03-15T04:37:03;93360.50;;;19.61;23.70
1926;BME280;964;42.606;23.588;2023-03-15T04:39:30;93352.88;;;20.68;22.87
1926;BME280;964;42.606;23.588;2023-03-15T04:41:57;93356.78;;;20.02;23.60
1926;BME280;964;42.606;23.588;2023-03-15T04:44:24;93346.25;;;20.60;22.87
1926;BME280;964;42.606;23.588;2023-03-15T04:46:53;93343.22;;;21.20;22.72
1926;BME280;964;42.606;23.588;2023-03-15T04:49:20;93346.41;;;20.96;22.61
1926;BME280;964;42.606;23.588;2023-03-15T04:51:47;93339.34;;;21.39;22.14
1926;BME280;964;42.606;23.588;2023-03-15T04:54:13;93333.09;;;22.15;21.76
1926;BME280;964;42.606;23.588;2023-03-15T04:56:40;93359.47;;;20.45;22.99
1926;BME280;964;42.606;23.588;2023-03-15T04:59:08;93354.84;;;20.77;22.82
1926;BME280;964;42.606;23.588;2023-03-15T05:01:35;93337.28;;;21.70;22.47
1926;BME280;964;42.606;23.588;2023-03-15T05:04:04;93340.56;;;22.29;22.08
1926;BME280;964;42.606;23.588;2023-03-15T05:06:30;93342.97;;;21.63;22.02
1926;BME280;964;42.606;23.588;2023-03-15T05:08:57;93347.50;;;20.68;23.30
1926;BME280;964;42.606;23.588;2023-03-15T05:14:43;93346.88;;;21.62;22.54
1926;BME280;964;42.606;23.588;2023-03-15T05:17:09;93338.38;;;22.00;22.00
1926;BME280;964;42.606;23.588;2023-03-15T05:19:37;93333.97;;;21.75;22.61
1926;BME280;964;42.606;23.588;2023-03-15T05:22:05;93338.19;;;21.85;22.28
1926;BME280;964;42.606;23.588;2023-03-15T05:24:32;93333.97;;;22.12;22.25
1926;BME280;964;42.606;23.588;2023-03-15T05:26:59;93329.38;;;22.63;21.23
1926;BME280;964;42.606;23.588;2023-03-15T05:29:25;93342.53;;;22.28;22.08
1926;BME280;964;42.606;23.588;2023-03-15T05:31:52;93333.25;;;23.46;21.51
1926;BME280;964;42.606;23.588;2023-03-15T05:34:19;93343.16;;;22.83;21.32
1926;BME280;964;42.606;23.588;2023-03-15T05:36:49;93342.16;;;22.54;22.23
1926;BME280;964;42.606;23.588;2023-03-15T05:39:16;93338.22;;;22.04;22.80
1926;BME280;964;42.606;23.588;2023-03-15T05:41:43;93336.06;;;21.89;22.23
1926;BME280;964;42.606;23.588;2023-03-15T05:44:09;93336.34;;;22.46;21.98
1926;BME280;964;42.606;23.588;2023-03-15T05:46:36;93330.91;;;22.55;21.65
1926;BME280;964;42.606;23.588;2023-03-15T05:49:03;93326.88;;;23.97;20.67
1926;BME280;964;42.606;23.588;2023-03-15T05:51:30;93335.91;;;22.89;21.57
1926;BME280;964;42.606;23.588;2023-03-15T05:53:58;93329.53;;;22.60;21.87
1926;BME280;964;42.606;23.588;2023-03-15T05:56:25;93326.22;;;21.95;23.07
1926;BME280;964;42.606;23.588;2023-03-15T05:58:51;93323.13;;;22.48;22.31
1926;BME280;964;42.606;23.588;2023-03-15T06:01:18;93321.97;;;22.40;21.76
1926;BME280;964;42.606;23.588;2023-03-15T06:03:45;93310.66;;;23.02;21.55
1926;BME280;964;42.606;23.588;2023-03-15T06:06:11;93324.41;;;23.46;21.13
1926;BME280;964;42.606;23.588;2023-03-15T06:08:38;93322.59;;;24.93;20.35
1926;BME280;964;42.606;23.588;2023-03-15T06:11:06;93328.69;;;25.22;19.79
1926;BME280;964;42.606;23.588;2023-03-15T06:13:33;93332.69;;;24.48;20.36
1926;BME280;964;42.606;23.588;2023-03-15T06:16:00;93330.63;;;25.02;20.31
1926;BME280;964;42.606;23.588;2023-03-15T06:18:26;93334.72;;;25.12;19.99
1926;BME280;964;42.606;23.588;2023-03-15T06:20:53;93332.16;;;24.29;20.29
1926;BME280;964;42.606;23.588;2023-03-15T06:23:20;93341.88;;;24.51;20.44
1926;BME280;964;42.606;23.588;2023-03-15T06:25:46;93325.38;;;25.68;19.68
1926;BME280;964;42.606;23.588;2023-03-15T06:28:14;93327.03;;;25.45;19.65
1926;BME280;964;42.606;23.588;2023-03-15T06:30:41;93318.38;;;25.06;20.44
1926;BME280;964;42.606;23.588;2023-03-15T06:33:08;93302.75;;;25.16;20.40
1926;BME280;964;42.606;23.588;2023-03-15T06:35:36;93309.34;;;24.95;20.63
1926;BME280;964;42.606;23.588;2023-03-15T06:38:02;93298.03;;;25.31;20.40
1926;BME280;964;42.606;23.588;2023-03-15T06:40:29;93313.47;;;24.17;20.92
1926;BME280;964;42.606;23.588;2023-03-15T06:42:56;93301.22;;;24.95;20.77
1926;BME280;964;42.606;23.588;2023-03-15T06:45:24;93294.69;;;24.86;20.44
1926;BME280;964;42.606;23.588;2023-03-15T06:47:50;93294.44;;;24.55;21.16
1926;BME280;964;42.606;23.588;2023-03-15T06:50:17;93292.22;;;23.71;20.90
1926;BME280;964;42.606;23.588;2023-03-15T06:52:43;93285.88;;;25.47;19.95
1926;BME280;964;42.606;23.588;2023-03-15T06:55:10;93283.31;;;25.78;19.61
1926;BME280;964;42.606;23.588;2023-03-15T06:57:41;93267.94;;;27.09;18.60
1926;BME280;964;42.606;23.588;2023-03-15T07:00:09;93279.75;;;25.11;19.87
1926;BME280;964;42.606;23.588;2023-03-15T07:02:38;93281.59;;;24.70;20.24
1926;BME280;964;42.606;23.588;2023-03-15T07:05:05;93282.34;;;25.20;20.07
1926;BME280;964;42.606;23.588;2023-03-15T07:07:32;93284.81;;;25.04;20.06
1926;BME280;964;42.606;23.588;2023-03-15T07:09:59;93277.78;;;25.93;19.73
1926;BME280;964;42.606;23.588;2023-03-15T07:12:25;93273.44;;;26.84;18.85
1926;BME280;964;42.606;23.588;2023-03-15T07:14:52;93285.16;;;26.38;19.09
1926;BME280;964;42.606;23.588;2023-03-15T07:17:19;93275.28;;;26.66;18.63
1926;BME280;964;42.606;23.588;2023-03-15T07:19:47;93288.38;;;26.68;18.62
1926;BME280;964;42.606;23.588;2023-03-15T07:22:14;93288.19;;;26.20;19.01
1926;BME280;964;42.606;23.588;2023-03-15T07:24:41;93287.44;;;27.08;18.50
1926;BME280;964;42.606;23.588;2023-03-15T07:27:10;93288.41;;;26.42;18.89
1926;BME280;964;42.606;23.588;2023-03-15T07:29:37;93278.38;;;27.22;18.34
1926;BME280;964;42.606;23.588;2023-03-15T07:32:04;93272.63;;;27.57;18.40
1926;BME280;964;42.606;23.588;2023-03-15T07:34:31;93270.19;;;27.64;17.85
1926;BME280;964;42.606;23.588;2023-03-15T07:36:59;93273.47;;;27.91;18.08
1926;BME280;964;42.606;23.588;2023-03-15T07:39:25;93255.69;;;27.36;18.35
1926;BME280;964;42.606;23.588;2023-03-15T07:41:53;93258.00;;;27.54;18.28
1926;BME280;964;42.606;23.588;2023-03-15T07:44:20;93258.25;;;28.54;18.56
1926;BME280;964;42.606;23.588;2023-03-15T07:46:47;93259.25;;;28.73;17.94
1926;BME280;964;42.606;23.588;2023-03-15T07:49:14;93264.59;;;27.96;17.95
1926;BME280;964;42.606;23.588;2023-03-15T07:51:40;93274.66;;;26.51;19.01
1926;BME280;964;42.606;23.588;2023-03-15T07:54:09;93273.06;;;28.09;17.81
1926;BME280;964;42.606;23.588;2023-03-15T07:56:35;93261.72;;;28.71;17.25
1926;BME280;964;42.606;23.588;2023-03-15T07:59:02;93245.47;;;30.44;16.69
1926;BME280;964;42.606;23.588;2023-03-15T08:01:29;93242.03;;;29.40;17.54
1926;BME280;964;42.606;23.588;2023-03-15T08:03:55;93252.78;;;28.32;17.22
1926;BME280;964;42.606;23.588;2023-03-15T08:06:22;93254.19;;;28.00;18.02
1926;BME280;964;42.606;23.588;2023-03-15T08:08:49;93255.25;;;28.97;17.26
1926;BME280;964;42.606;23.588;2023-03-15T08:11:19;93256.25;;;28.27;17.58
1926;BME280;964;42.606;23.588;2023-03-15T08:13:45;93262.50;;;27.15;18.18
1926;BME280;964;42.606;23.588;2023-03-15T08:16:12;93243.38;;;28.44;17.47
1926;BME280;964;42.606;23.588;2023-03-15T08:18:39;93229.22;;;29.07;17.22
1926;BME280;964;42.606;23.588;2023-03-15T08:21:05;93210.69;;;31.47;15.74
1926;BME280;964;42.606;23.588;2023-03-15T08:23:32;93224.94;;;30.62;16.09
1926;BME280;964;42.606;23.588;2023-03-15T08:25:59;93226.09;;;30.07;16.32
1926;BME280;964;42.606;23.588;2023-03-15T08:28:27;93219.78;;;30.17;16.13
1926;BME280;964;42.606;23.588;2023-03-15T08:30:53;93218.66;;;30.97;15.33
1926;BME280;964;42.606;23.588;2023-03-15T08:33:20;93205.09;;;32.46;14.80
1926;BME280;964;42.606;23.588;2023-03-15T08:35:51;93214.59;;;32.45;15.29
1926;BME280;964;42.606;23.588;2023-03-15T08:38:17;93214.63;;;33.56;14.32
1926;BME280;964;42.606;23.588;2023-03-15T08:40:44;93223.97;;;32.18;15.47
1926;BME280;964;42.606;23.588;2023-03-15T08:43:11;93231.63;;;30.67;15.25
1926;BME280;964;42.606;23.588;2023-03-15T08:45:39;93242.91;;;28.73;16.50
1926;BME280;964;42.606;23.588;2023-03-15T08:48:06;93237.34;;;29.35;16.94
1926;BME280;964;42.606;23.588;2023-03-15T08:50:32;93231.00;;;30.14;16.23
1926;BME280;964;42.606;23.588;2023-03-15T08:52:59;93222.38;;;29.52;16.66
1926;BME280;964;42.606;23.588;2023-03-15T08:55:25;93221.53;;;29.74;16.10
1926;BME280;964;42.606;23.588;2023-03-15T08:57:52;93233.47;;;28.74;17.00
1926;BME280;964;42.606;23.588;2023-03-15T09:00:19;93237.75;;;29.55;16.69
1926;BME280;964;42.606;23.588;2023-03-15T09:02:49;93236.28;;;29.54;17.02
1926;BME280;964;42.606;23.588;2023-03-15T09:05:17;93227.56;;;31.27;15.36
1926;BME280;964;42.606;23.588;2023-03-15T09:07:44;93229.22;;;29.76;16.30
1926;BME280;964;42.606;23.588;2023-03-15T09:10:13;93252.03;;;28.93;17.44
1926;BME280;964;42.606;23.588;2023-03-15T09:12:40;93236.53;;;30.74;16.33
1926;BME280;964;42.606;23.588;2023-03-15T09:15:08;93243.34;;;29.85;16.84
1926;BME280;964;42.606;23.588;2023-03-15T09:17:36;93240.84;;;29.13;17.26
1926;BME280;964;42.606;23.588;2023-03-15T09:20:06;93227.16;;;29.30;17.45
1926;BME280;964;42.606;23.588;2023-03-15T09:22:37;93237.13;;;29.10;17.01
1926;BME280;964;42.606;23.588;2023-03-15T09:25:04;93246.31;;;28.07;17.62
1926;BME280;964;42.606;23.588;2023-03-15T09:27:31;93247.13;;;27.54;18.07
1926;BME280;964;42.606;23.588;2023-03-15T09:29:58;93243.63;;;28.63;17.60
1926;BME280;964;42.606;23.588;2023-03-15T09:32:24;93246.81;;;27.41;18.09
1926;BME280;964;42.606;23.588;2023-03-15T09:34:51;93242.16;;;28.45;17.98
1926;BME280;964;42.606;23.588;2023-03-15T09:37:20;93240.38;;;28.31;17.56
1926;BME280;964;42.606;23.588;2023-03-15T09:39:47;93238.84;;;27.97;17.71
1926;BME280;964;42.606;23.588;2023-03-15T09:42:17;93226.19;;;29.16;17.18
1926;BME280;964;42.606;23.588;2023-03-15T09:44:51;93233.97;;;28.34;18.33
1926;BME280;964;42.606;23.588;2023-03-15T09:47:32;93235.47;;;28.74;17.42
1926;BME280;964;42.606;23.588;2023-03-15T09:50:05;93230.47;;;28.95;17.59
1926;BME280;964;42.606;23.588;2023-03-15T09:52:39;93228.66;;;29.36;17.59
1926;BME280;964;42.606;23.588;2023-03-15T09:55:12;93223.47;;;29.16;17.64
1926;BME280;964;42.606;23.588;2023-03-15T09:57:43;93219.03;;;29.13;17.26
1926;BME280;964;42.606;23.588;2023-03-15T10:00:14;93219.09;;;29.65;17.00
1926;BME280;964;42.606;23.588;2023-03-15T10:02:51;93216.34;;;30.52;16.64
1926;BME280;964;42.606;23.588;2023-03-15T10:05:24;93217.06;;;30.83;16.35
1926;BME280;964;42.606;23.588;2023-03-15T10:07:53;93225.72;;;29.12;17.61
1926;BME280;964;42.606;23.588;2023-03-15T10:10:23;93222.75;;;29.04;17.68
1926;BME280;964;42.606;23.588;2023-03-15T10:13:05;93213.47;;;29.46;17.06
1926;BME280;964;42.606;23.588;2023-03-15T10:15:43;93202.72;;;30.11;17.06
1926;BME280;964;42.606;23.588;2023-03-15T10:18:24;93204.41;;;29.10;17.31
1926;BME280;964;42.606;23.588;2023-03-15T10:20:57;93203.09;;;29.80;17.15
1926;BME280;964;42.606;23.588;2023-03-15T10:23:35;93208.63;;;29.75;16.90
1926;BME280;964;42.606;23.588;2023-03-15T10:26:07;93213.28;;;29.22;17.24
1926;BME280;964;42.606;23.588;2023-03-15T10:28:37;93226.88;;;27.66;18.18
1926;BME280;964;42.606;23.588;2023-03-15T10:31:11;93222.00;;;27.93;17.98
1926;BME280;964;42.606;23.588;2023-03-15T10:33:39;93201.75;;;30.09;16.62
1926;BME280;964;42.606;23.588;2023-03-15T10:36:13;93187.59;;;31.19;17.12
1926;BME280;964;42.606;23.588;2023-03-15T10:38:43;93180.69;;;30.88;16.63
1926;BME280;964;42.606;23.588;2023-03-15T10:41:11;93177.38;;;31.19;16.24
1926;BME280;964;42.606;23.588;2023-03-15T10:43:39;93183.53;;;30.52;16.53
1926;BME280;964;42.606;23.588;2023-03-15T10:46:08;93180.28;;;30.54;16.49
1926;BME280;964;42.606;23.588;2023-03-15T10:48:37;93187.66;;;29.47;17.40
1926;BME280;964;42.606;23.588;2023-03-15T10:51:06;93174.00;;;31.13;16.80
1926;BME280;964;42.606;23.588;2023-03-15T10:53:33;93168.91;;;31.66;15.55
1926;BME280;964;42.606;23.588;2023-03-15T10:56:06;93166.75;;;31.58;15.89
1926;BME280;964;42.606;23.588;2023-03-15T10:58:41;93166.00;;;30.91;16.03
1926;BME280;964;42.606;23.588;2023-03-15T11:01:12;93171.53;;;31.90;14.84
1926;BME280;964;42.606;23.588;2023-03-15T11:03:59;93166.38;;;32.50;15.22
1926;BME280;964;42.606;23.588;2023-03-15T11:06:27;93167.50;;;32.60;15.07
1926;BME280;964;42.606;23.588;2023-03-15T11:09:07;93170.16;;;31.22;15.59
1926;BME280;964;42.606;23.588;2023-03-15T11:11:50;93166.31;;;31.30;15.83
1926;BME280;964;42.606;23.588;2023-03-15T11:14:18;93174.31;;;32.03;15.58
1926;BME280;964;42.606;23.588;2023-03-15T11:16:47;93172.03;;;32.39;15.17
1926;BME280;964;42.606;23.588;2023-03-15T11:19:15;93170.72;;;32.45;14.89
1926;BME280;964;42.606;23.588;2023-03-15T11:21:44;93169.09;;;32.95;15.42
1926;BME280;964;42.606;23.588;2023-03-15T11:24:21;93165.50;;;32.61;15.41
1926;BME280;964;42.606;23.588;2023-03-15T11:26:51;93172.28;;;32.54;15.53
1926;BME280;964;42.606;23.588;2023-03-15T11:29:22;93170.22;;;32.28;15.18
1926;BME280;964;42.606;23.588;2023-03-15T11:31:50;93163.91;;;32.33;15.69
1926;BME280;964;42.606;23.588;2023-03-15T11:34:26;93158.03;;;33.27;14.99
1926;BME280;964;42.606;23.588;2023-03-15T11:36:59;93153.03;;;33.65;14.77
1926;BME280;964;42.606;23.588;2023-03-15T11:39:35;93153.47;;;33.42;14.38
1926;BME280;964;42.606;23.588;2023-03-15T11:42:10;93156.69;;;33.20;14.71
1926;BME280;964;42.606;23.588;2023-03-15T11:44:44;93145.06;;;33.14;14.92
1926;BME280;964;42.606;23.588;2023-03-15T11:47:13;93153.47;;;32.64;14.70
1926;BME280;964;42.606;23.588;2023-03-15T11:49:46;93150.09;;;33.63;14.68
1926;BME280;964;42.606;23.588;2023-03-15T11:52:15;93144.75;;;34.74;14.39
1926;BME280;964;42.606;23.588;2023-03-15T11:54:43;93144.44;;;34.15;14.31
1926;BME280;964;42.606;23.588;2023-03-15T11:57:37;93145.84;;;33.62;14.35
1926;BME280;964;42.606;23.588;2023-03-15T12:03:24;93145.41;;;34.05;13.85
1926;BME280;964;42.606;23.588;2023-03-15T12:05:59;93134.84;;;33.75;14.65
1926;BME280;964;42.606;23.588;2023-03-15T12:08:41;93131.16;;;33.93;14.25
1926;BME280;964;42.606;23.588;2023-03-15T12:11:12;93121.78;;;33.88;14.35
1926;BME280;964;42.606;23.588;2023-03-15T12:13:50;93115.75;;;34.11;14.61
1926;BME280;964;42.606;23.588;2023-03-15T12:16:20;93119.50;;;33.79;14.69
1926;BME280;964;42.606;23.588;2023-03-15T12:18:47;93131.94;;;32.94;15.38
1926;BME280;964;42.606;23.588;2023-03-15T12:21:20;93137.44;;;32.81;14.50
1926;BME280;964;42.606;23.588;2023-03-15T12:23:57;93127.84;;;32.87;14.88
1926;BME280;964;42.606;23.588;2023-03-15T12:26:31;93124.66;;;32.83;15.13
1926;BME280;964;42.606;23.588;2023-03-15T12:29:16;93132.06;;;31.98;15.78
1926;BME280;964;42.606;23.588;2023-03-15T12:31:56;93132.63;;;32.55;15.16
1926;BME280;964;42.606;23.588;2023-03-15T12:34:38;93125.91;;;33.09;14.91
1926;BME280;964;42.606;23.588;2023-03-15T12:37:13;93116.53;;;33.30;15.07
1926;BME280;964;42.606;23.588;2023-03-15T12:39:43;93123.53;;;32.79;15.45
1926;BME280;964;42.606;23.588;2023-03-15T12:45:46;93125.06;;;32.61;14.98
1926;BME280;964;42.606;23.588;2023-03-15T12:48:21;93113.16;;;32.85;15.36
1926;BME280;964;42.606;23.588;2023-03-15T12:50:51;93116.06;;;32.47;15.29
1926;BME280;964;42.606;23.588;2023-03-15T12:53:22;93121.16;;;31.93;16.30
1926;BME280;964;42.606;23.588;2023-03-15T12:55:53;93114.66;;;32.86;15.31
1926;BME280;964;42.606;23.588;2023-03-15T12:58:25;93107.56;;;32.77;15.18
1926;BME280;964;42.606;23.588;2023-03-15T13:00:54;93113.44;;;32.42;15.46
1926;BME280;964;42.606;23.588;2023-03-15T13:03:25;93107.84;;;32.47;15.55
1926;BME280;964;42.606;23.588;2023-03-15T13:05:59;93120.88;;;31.78;16.22
1926;BME280;964;42.606;23.588;2023-03-15T13:08:30;93113.50;;;32.36;15.76
1926;BME280;964;42.606;23.588;2023-03-15T13:11:10;93113.94;;;32.27;15.70
1926;BME280;964;42.606;23.588;2023-03-15T13:13:58;93127.03;;;32.47;16.14
1926;BME280;964;42.606;23.588;2023-03-15T13:16:34;93120.78;;;32.79;16.19
1926;BME280;964;42.606;23.588;2023-03-15T13:19:13;93108.94;;;32.71;15.82
1926;BME280;964;42.606;23.588;2023-03-15T13:21:52;93117.38;;;32.73;15.39
1926;BME280;964;42.606;23.588;2023-03-15T13:24:26;93125.66;;;31.58;16.24
1926;BME280;964;42.606;23.588;2023-03-15T13:27:01;93125.97;;;32.37;15.76
1926;BME280;964;42.606;23.588;2023-03-15T13:29:33;93120.28;;;32.48;15.74
1926;BME280;964;42.606;23.588;2023-03-15T13:32:11;93119.06;;;32.18;16.20
1926;BME280;964;42.606;23.588;2023-03-15T13:34:38;93117.75;;;32.50;15.49
1926;BME280;964;42.606;23.588;2023-03-15T13:37:12;93119.50;;;32.03;16.17
1926;BME280;964;42.606;23.588;2023-03-15T13:39:52;93118.38;;;32.43;15.48
1926;BME280;964;42.606;23.588;2023-03-15T13:42:21;93114.75;;;32.22;15.75